Home PIREPS Pireps

Flight BEL2257

  • Submitted By: Vincent Fourni
  • Departure Airport: Bruxelles National (EBBR)
  • Arrival Airport: Kastrup (EKCH)
  • Aircraft: A319-112 (OO-SSG)
  • Flight Time: 01.34
  • Date Submitted: 25/05/2018
  • Status: Accepted
Flight Details
Gross Revenue:
(110 load / € 102.00 per unit
€ 11,220.00
Fuel Cost:
(5881 fuel used @ 5.1 / unit)
€ 29,993.10

Additional Log Information:

View Log

Aircraft Used in flight is PMDG 737-800NGX Brussels Airlines Winglets
20:54 Brakes are On
21:06 Brakes are Released
21:08 Brakes are On
21:10 Brakes are Released
21:16 You Took off @ 163 Knots and Flaps at Position 3
Departure Weather
EBBR 251850Z 01007KT 7000 NSC 22/17 Q1017 NOSIGrn
21:16 Landing Gear Up @ 165 Knots and 520 Feet
21:17 Below FL100 you need to turn on the landing lights
21:24 Below 10000 feet you are not allowed to go over 250 knots
22:20 Above FL100 you need to switch of the landing lights
22:20 Above FL100 you need to switch of the landing lights
22:26 Landing Gear Down @ 231 Knots and 2440 Feet
22:29 You Landed @ 152 Knots and with -250 Vertical Speed
Arrival Weather
EKCH 251950Z 07006KT CAVOK 18/08 Q1025 NOSIGrn
22:29 Paused
22:32 Unpaused
22:32 You are Airborne and your Beacons are off
22:32 You are Airborne and your Navigation Lights are off
22:32 Brussels Bel-Track1.0.1.2

Route Map

Corporate About Us Our Team Vacancies Information Fleet Route Network Rules and Regulations Operations Flight Schedules Event Center Tours Partners IVAO Vatsim Acars dev FSCB

fb Users Online Belgium Dominique Dory, South Africa Marc Toussaint,
2 Pilot(s) and 135 Guest(s) Online
CMS by phpVMS - Design by Crazycreatives.com - Copyright © 2020 - Brussels Airlines Virtual